Decoded Metar for YNTN ( in ) (IATA:) | Meteo·Mobile Aviation Weather
aviador You're here:

YNTN Decoded Metar

in
Report Time2018-12-17 13:00:00
UTC Time2018-12-17 14:05:16
Flight Rules vfr VFR
Wind340° at 10 kt
W.Decomp.*RWY 32: 9.4 kt HW 3.4 kt RCW
W.Rank340° ranks 15
Current wind is above 340° avg. (7.3)
Visibility9999 m
Phenomena:N/A
Clouds:Scattered 015 Hf
Broken 120 Hf
Expected CloudBase > 1,200 ft AGL from Temp-Dew spread
Ceiling12,000 ft
Temp30°C
Dew Point27°C (84% RH)
Heat Index38.8°C
QNH1006 hPa
Raw Report
METAR YNTN 171300Z AUTO 34010KT 9999 // SCT015 BKN120 30/27 Q1006=

Extra information for YNTN:More info

Social comments